createdAt,value
2022-11-04T00:00:29.638Z,10.99
2022-11-04T00:02:58.463Z,10.94
2022-11-04T00:05:26.234Z,10.95
2022-11-04T00:08:11.633Z,10.93
2022-11-04T00:10:56.988Z,10.93
2022-11-04T00:13:24.908Z,10.92
2022-11-04T00:16:11.689Z,10.92
2022-11-04T00:18:42.192Z,10.87
2022-11-04T00:21:27.235Z,10.90
2022-11-04T00:24:12.610Z,10.85
2022-11-04T00:26:57.993Z,10.81
2022-11-04T00:29:26.063Z,10.75
2022-11-04T00:32:18.247Z,10.62
2022-11-04T00:34:46.015Z,10.52
2022-11-04T00:37:13.789Z,10.40
2022-11-04T00:39:41.861Z,10.35
2022-11-04T00:42:09.852Z,10.29
2022-11-04T00:44:37.898Z,10.19
2022-11-04T00:47:07.317Z,10.22
2022-11-04T00:49:35.162Z,10.17
2022-11-04T00:52:03.125Z,10.13
2022-11-04T00:54:31.108Z,10.18
2022-11-04T00:56:58.919Z,10.19
2022-11-04T00:59:26.916Z,10.21
2022-11-04T01:01:54.765Z,10.17
2022-11-04T01:04:24.172Z,10.20
2022-11-04T01:06:52.234Z,10.13
2022-11-04T01:09:20.390Z,10.08
2022-11-04T01:11:48.483Z,10.11
2022-11-04T01:14:16.539Z,10.14
2022-11-04T01:16:44.590Z,10.10
2022-11-04T01:19:12.741Z,10.13
2022-11-04T01:21:42.063Z,10.13
2022-11-04T01:24:10.087Z,10.12
2022-11-04T01:26:38.394Z,10.08
2022-11-04T01:29:06.348Z,10.09
2022-11-04T01:31:34.750Z,10.07
2022-11-04T01:34:02.725Z,10.10
2022-11-04T01:36:30.567Z,10.10
2022-11-04T01:38:59.762Z,10.08
2022-11-04T01:41:30.218Z,10.06
2022-11-04T01:43:59.851Z,10.04
2022-11-04T01:46:36.663Z,10.00
2022-11-04T01:49:17.001Z,9.94
2022-11-04T01:51:45.974Z,9.94
2022-11-04T01:54:15.751Z,9.84
2022-11-04T01:56:44.300Z,9.93
2022-11-04T01:59:16.414Z,9.91
2022-11-04T02:01:46.983Z,9.92
2022-11-04T02:04:27.591Z,9.78
2022-11-04T02:07:10.423Z,9.91
2022-11-04T02:09:41.183Z,9.91
2022-11-04T02:12:27.259Z,9.87
2022-11-04T02:14:56.674Z,9.82
2022-11-04T02:17:35.778Z,9.91
2022-11-04T02:20:21.786Z,9.89
2022-11-04T02:23:21.918Z,9.88
2022-11-04T02:26:32.395Z,9.91
2022-11-04T02:29:19.805Z,9.92
2022-11-04T02:31:56.030Z,9.91
2022-11-04T02:34:34.805Z,9.96
2022-11-04T02:37:12.671Z,9.96
2022-11-04T02:39:52.672Z,9.99
2022-11-04T02:42:29.000Z,10.02
2022-11-04T02:45:14.163Z,10.01
2022-11-04T02:47:46.768Z,9.95
2022-11-04T02:50:23.632Z,9.96
2022-11-04T02:52:57.105Z,9.96
2022-11-04T02:55:28.375Z,9.95
2022-11-04T02:58:01.020Z,9.98
2022-11-04T03:00:31.274Z,9.91
2022-11-04T03:03:03.632Z,9.94
2022-11-04T03:05:35.889Z,9.94
2022-11-04T03:08:07.830Z,9.94
2022-11-04T03:10:39.674Z,9.96
2022-11-04T03:13:13.680Z,9.95
2022-11-04T03:15:49.741Z,9.93
2022-11-04T03:18:23.555Z,9.88
2022-11-04T03:20:52.622Z,9.93
2022-11-04T03:23:20.851Z,9.93
2022-11-04T03:25:55.234Z,9.92
2022-11-04T03:28:32.034Z,9.94
2022-11-04T03:31:05.659Z,9.92
2022-11-04T03:33:39.914Z,9.90
2022-11-04T03:36:08.882Z,9.88
2022-11-04T03:38:37.223Z,9.88
2022-11-04T03:41:11.572Z,9.91
2022-11-04T03:43:42.024Z,9.83
2022-11-04T03:46:11.837Z,9.81
2022-11-04T03:48:39.938Z,9.88
2022-11-04T03:51:10.103Z,9.89
2022-11-04T03:53:38.033Z,9.91
2022-11-04T03:56:26.186Z,9.88
2022-11-04T03:59:08.950Z,9.87
2022-11-04T04:01:50.433Z,9.87
2022-11-04T04:04:27.004Z,9.89
2022-11-04T04:07:02.228Z,9.90
2022-11-04T04:09:38.866Z,9.91
2022-11-04T04:12:14.643Z,9.85
2022-11-04T04:14:46.276Z,9.87
2022-11-04T04:17:22.726Z,9.85
2022-11-04T04:19:55.222Z,9.84
2022-11-04T04:22:26.257Z,9.82
2022-11-04T04:25:15.924Z,9.76
2022-11-04T04:27:45.205Z,9.79
2022-11-04T04:30:15.756Z,9.81
2022-11-04T04:32:47.378Z,9.76
2022-11-04T04:35:33.813Z,9.76
2022-11-04T04:38:19.094Z,9.73
2022-11-04T04:41:21.206Z,9.67
2022-11-04T04:44:07.093Z,9.63
2022-11-04T04:46:36.562Z,9.62
2022-11-04T04:49:10.779Z,9.55
2022-11-04T04:51:42.309Z,9.51
2022-11-04T04:54:12.453Z,9.48
2022-11-04T04:56:40.256Z,9.30
2022-11-04T04:59:08.106Z,9.32
2022-11-04T05:01:36.055Z,9.28
2022-11-04T05:04:05.118Z,9.25
2022-11-04T05:06:34.327Z,9.19
2022-11-04T05:09:02.261Z,9.19
2022-11-04T05:11:32.001Z,9.19
2022-11-04T05:13:59.855Z,9.16
2022-11-04T05:16:27.636Z,9.22
2022-11-04T05:18:55.730Z,9.21
2022-11-04T05:21:23.590Z,9.11
2022-11-04T05:23:52.854Z,9.18
2022-11-04T05:26:20.889Z,9.21
2022-11-04T05:28:48.946Z,9.09
2022-11-04T05:31:16.725Z,9.21
2022-11-04T05:33:46.919Z,9.21
2022-11-04T05:36:16.909Z,9.19
2022-11-04T05:38:44.929Z,9.19
2022-11-04T05:41:25.679Z,9.16
2022-11-04T05:43:54.204Z,9.12
2022-11-04T05:46:22.413Z,9.11
2022-11-04T05:48:50.186Z,9.16
2022-11-04T05:51:20.456Z,9.13
2022-11-04T05:53:48.462Z,9.10
2022-11-04T05:56:18.095Z,9.12
2022-11-04T05:58:46.203Z,9.07
2022-11-04T06:01:23.988Z,8.99
2022-11-04T06:03:52.084Z,8.88
2022-11-04T06:06:20.170Z,8.75
2022-11-04T06:08:48.182Z,8.68
2022-11-04T06:11:19.510Z,8.62
2022-11-04T06:13:47.445Z,8.48
2022-11-04T06:16:15.384Z,8.45
2022-11-04T06:18:44.386Z,8.47
2022-11-04T06:21:25.231Z,8.32
2022-11-04T06:23:54.295Z,8.36
2022-11-04T06:26:27.812Z,8.31
2022-11-04T06:28:56.587Z,8.21
2022-11-04T06:31:25.964Z,8.26
2022-11-04T06:33:54.116Z,8.17
2022-11-04T06:36:22.029Z,8.16
2022-11-04T06:38:49.927Z,8.20
2022-11-04T06:41:18.303Z,8.18
2022-11-04T06:43:47.705Z,8.16
2022-11-04T06:46:27.681Z,8.17
2022-11-04T06:48:57.283Z,8.26
2022-11-04T06:51:25.375Z,8.24
2022-11-04T06:53:53.439Z,8.26
2022-11-04T06:56:21.516Z,8.21
2022-11-04T06:58:51.502Z,8.14
2022-11-04T07:01:22.303Z,8.06
2022-11-04T07:03:51.441Z,8.09
2022-11-04T07:06:20.105Z,8.18
2022-11-04T07:08:48.550Z,8.20
2022-11-04T07:11:16.540Z,8.19
2022-11-04T07:13:44.486Z,8.23
2022-11-04T07:16:13.777Z,8.19
2022-11-04T07:18:41.596Z,8.18
2022-11-04T07:21:11.344Z,8.26
2022-11-04T07:23:39.664Z,8.29
2022-11-04T07:26:09.809Z,8.35
2022-11-04T07:28:40.946Z,8.30
2022-11-04T07:31:11.792Z,8.38
2022-11-04T07:33:43.653Z,8.31
2022-11-04T07:36:13.610Z,8.26
2022-11-04T07:38:41.485Z,8.31
2022-11-04T07:41:09.467Z,8.30
2022-11-04T07:43:39.310Z,8.29
2022-11-04T07:46:08.891Z,8.35
2022-11-04T07:48:37.713Z,8.33
2022-11-04T07:51:08.552Z,8.42
2022-11-04T07:53:37.036Z,8.45
2022-11-04T07:56:06.349Z,8.47
2022-11-04T07:58:35.096Z,8.43
2022-11-04T08:01:05.548Z,8.49
2022-11-04T08:03:34.429Z,8.50
2022-11-04T08:06:03.880Z,8.58
2022-11-04T08:08:33.480Z,8.65
2022-11-04T08:11:02.938Z,8.81
2022-11-04T08:13:31.958Z,8.90
2022-11-04T08:16:03.151Z,9.05
2022-11-04T08:18:32.041Z,9.03
2022-11-04T08:21:02.495Z,9.13
2022-11-04T08:23:31.013Z,8.98
2022-11-04T08:26:00.453Z,8.94
2022-11-04T08:28:29.709Z,9.05
2022-11-04T08:30:59.212Z,9.30
2022-11-04T08:33:28.683Z,9.82
2022-11-04T08:35:59.850Z,10.12
2022-11-04T08:38:28.731Z,10.82
2022-11-04T08:40:59.910Z,11.01
2022-11-04T08:43:30.937Z,11.56
2022-11-04T08:45:58.983Z,11.68
2022-11-04T08:48:27.161Z,11.77
2022-11-04T08:50:58.851Z,11.88
2022-11-04T08:53:27.299Z,11.92
2022-11-04T08:55:55.864Z,11.72
2022-11-04T08:58:24.995Z,12.09
2022-11-04T09:00:54.295Z,12.33
2022-11-04T09:03:22.481Z,12.74
2022-11-04T09:05:50.348Z,12.78
2022-11-04T09:08:19.303Z,13.04
2022-11-04T09:10:48.811Z,13.34
2022-11-04T09:13:17.723Z,13.30
2022-11-04T09:15:45.937Z,13.00
2022-11-04T09:18:16.904Z,12.55
2022-11-04T09:20:46.644Z,12.92
2022-11-04T09:23:15.172Z,12.79
2022-11-04T09:25:43.219Z,13.20
2022-11-04T09:28:12.023Z,13.25
2022-11-04T09:30:43.104Z,13.61
2022-11-04T09:33:11.335Z,13.54
2022-11-04T09:35:40.925Z,14.44
2022-11-04T09:38:08.870Z,14.86
2022-11-04T09:40:39.652Z,14.31
2022-11-04T09:43:22.716Z,13.88
2022-11-04T09:45:50.752Z,13.29
2022-11-04T09:48:27.483Z,13.51
2022-11-04T09:50:59.806Z,14.34
2022-11-04T09:53:31.643Z,14.75
2022-11-04T09:56:03.391Z,14.92
2022-11-04T09:58:35.755Z,14.91
2022-11-04T10:01:10.720Z,14.85
2022-11-04T10:04:00.315Z,14.59
2022-11-04T10:06:40.897Z,14.46
2022-11-04T10:09:28.449Z,14.26
2022-11-04T10:12:06.974Z,13.60
2022-11-04T10:15:02.349Z,12.86
2022-11-04T10:17:48.705Z,12.93
2022-11-04T10:20:28.705Z,13.29
2022-11-04T10:23:00.273Z,13.00
2022-11-04T10:25:35.675Z,13.30
2022-11-04T10:28:04.704Z,14.38
2022-11-04T10:30:34.546Z,14.48
2022-11-04T10:33:10.769Z,14.27
2022-11-04T10:35:43.701Z,14.29
2022-11-04T10:38:22.566Z,14.10
2022-11-04T10:40:52.469Z,13.77
2022-11-04T10:43:29.682Z,13.48
2022-11-04T10:46:20.335Z,13.20
2022-11-04T10:48:52.920Z,12.95
2022-11-04T10:51:24.658Z,12.71
2022-11-04T10:53:57.680Z,12.97
2022-11-04T10:56:34.968Z,12.99
2022-11-04T10:59:24.438Z,12.90
2022-11-04T11:01:54.412Z,12.58
2022-11-04T11:04:28.919Z,12.42
2022-11-04T11:06:59.407Z,12.30
2022-11-04T11:09:30.600Z,12.27
2022-11-04T11:12:01.847Z,12.61
2022-11-04T11:14:36.133Z,13.40
2022-11-04T11:17:20.544Z,14.57
2022-11-04T11:19:52.203Z,14.04
2022-11-04T11:22:38.675Z,13.15
2022-11-04T11:25:31.076Z,12.99
2022-11-04T11:28:01.431Z,12.90
2022-11-04T11:30:32.521Z,13.90
2022-11-04T11:33:04.024Z,14.84
2022-11-04T11:35:42.032Z,15.38
2022-11-04T11:38:20.078Z,15.44
2022-11-04T11:41:22.777Z,15.84
2022-11-04T11:43:45.118Z,16.50
2022-11-04T11:46:14.824Z,16.25
2022-11-04T11:48:44.462Z,14.77
2022-11-04T11:51:14.856Z,13.10
2022-11-04T11:54:03.829Z,11.91
2022-11-04T11:56:59.336Z,11.57
2022-11-04T12:02:32.683Z,10.59
2022-11-04T12:10:52.223Z,10.00
2022-11-04T12:13:29.404Z,10.11
2022-11-04T12:16:24.874Z,10.06
2022-11-04T12:19:26.276Z,10.34
2022-11-04T12:22:00.465Z,10.32
2022-11-04T12:24:37.050Z,11.29
2022-11-04T12:27:15.734Z,12.43
2022-11-04T12:30:03.525Z,12.88
2022-11-04T12:32:41.099Z,13.16
2022-11-04T12:35:24.993Z,12.31
2022-11-04T12:38:07.394Z,11.77
2022-11-04T12:40:43.496Z,11.32
2022-11-04T12:43:23.339Z,11.18
2022-11-04T12:46:07.704Z,11.02
2022-11-04T12:49:06.010Z,10.91
2022-11-04T12:51:46.520Z,10.76
2022-11-04T12:54:28.948Z,10.56
2022-11-04T12:57:09.068Z,10.59
2022-11-04T12:59:53.821Z,10.53
2022-11-04T13:02:27.486Z,10.51
2022-11-04T13:05:04.393Z,10.47
2022-11-04T13:07:37.249Z,10.44
2022-11-04T13:10:13.331Z,10.59
2022-11-04T13:12:45.551Z,10.59
2022-11-04T13:15:18.296Z,10.81
2022-11-04T13:17:51.077Z,11.10
2022-11-04T13:20:28.720Z,11.48
2022-11-04T13:23:08.085Z,12.36
2022-11-04T13:25:41.878Z,13.27
2022-11-04T13:28:13.892Z,14.00
2022-11-04T13:30:51.540Z,14.86
2022-11-04T13:33:31.298Z,15.21
2022-11-04T13:36:05.908Z,15.13
2022-11-04T13:38:37.965Z,15.01
2022-11-04T13:41:54.551Z,14.99
2022-11-04T13:44:26.972Z,14.93
2022-11-04T13:46:58.586Z,15.60
2022-11-04T13:49:32.546Z,16.30
2022-11-04T13:52:08.166Z,15.69
2022-11-04T13:54:41.894Z,16.05
2022-11-04T13:57:18.161Z,17.46
2022-11-04T14:00:08.939Z,16.10
2022-11-04T14:02:42.354Z,15.83
2022-11-04T14:05:54.548Z,17.04
2022-11-04T14:08:26.720Z,17.44
2022-11-04T14:11:06.852Z,16.45
2022-11-04T14:14:04.166Z,16.47
2022-11-04T14:16:44.520Z,15.54
2022-11-04T14:19:58.039Z,14.50
2022-11-04T14:22:32.419Z,13.71
2022-11-04T14:25:04.625Z,13.77
2022-11-04T14:27:40.799Z,13.56
2022-11-04T14:31:01.136Z,13.79
2022-11-04T14:33:51.403Z,14.01
2022-11-04T14:36:34.535Z,14.14
2022-11-04T14:39:08.579Z,13.55
2022-11-04T14:41:59.055Z,13.52
2022-11-04T14:44:37.605Z,12.78
2022-11-04T14:47:18.456Z,11.88
2022-11-04T14:49:48.683Z,11.40
2022-11-04T14:52:26.725Z,11.03
2022-11-04T14:54:58.689Z,10.73
2022-11-04T14:57:32.576Z,10.41
2022-11-04T15:00:00.442Z,10.21
2022-11-04T15:02:33.918Z,10.03
2022-11-04T15:05:03.248Z,9.96
2022-11-04T15:07:36.538Z,9.77
2022-11-04T15:10:20.679Z,9.71
2022-11-04T15:12:52.724Z,9.62
2022-11-04T15:15:37.196Z,9.62
2022-11-04T15:18:09.900Z,9.54
2022-11-04T15:20:45.919Z,9.45
2022-11-04T15:23:17.621Z,9.46
2022-11-04T15:25:47.320Z,9.32
2022-11-04T15:28:22.237Z,9.42
2022-11-04T15:31:02.775Z,9.36
2022-11-04T15:33:35.190Z,9.28
2022-11-04T15:36:03.318Z,9.19
2022-11-04T15:38:31.801Z,9.26
2022-11-04T15:41:21.713Z,9.08
2022-11-04T15:43:50.471Z,9.03
2022-11-04T15:46:21.530Z,8.97
2022-11-04T15:49:04.435Z,8.91
2022-11-04T15:51:40.363Z,8.94
2022-11-04T15:54:21.481Z,8.95
2022-11-04T15:56:55.100Z,8.69
2022-11-04T15:59:27.860Z,8.77
2022-11-04T16:01:59.824Z,8.57
2022-11-04T16:04:29.594Z,8.48
2022-11-04T16:07:24.217Z,8.37
2022-11-04T16:09:54.363Z,8.35
2022-11-04T16:12:31.509Z,8.36
2022-11-04T16:15:01.131Z,8.23
2022-11-04T16:17:30.882Z,8.40
2022-11-04T16:20:02.323Z,8.20
2022-11-04T16:22:32.639Z,8.01
2022-11-04T16:25:03.688Z,7.96
2022-11-04T16:27:34.419Z,7.90
2022-11-04T16:30:10.694Z,7.78
2022-11-04T16:32:43.949Z,7.60
2022-11-04T16:35:18.277Z,7.57
2022-11-04T16:37:46.332Z,7.44
2022-11-04T16:40:17.083Z,7.35
2022-11-04T16:42:46.587Z,7.22
2022-11-04T16:45:25.983Z,7.02
2022-11-04T16:47:57.235Z,7.06
2022-11-04T16:50:25.885Z,6.88
2022-11-04T16:52:54.079Z,6.79
2022-11-04T16:55:23.667Z,6.64
2022-11-04T16:57:56.410Z,6.76
2022-11-04T17:00:27.502Z,6.68
2022-11-04T17:02:56.348Z,6.62
2022-11-04T17:05:24.150Z,6.61
2022-11-04T17:07:54.617Z,6.62
2022-11-04T17:10:25.910Z,6.79
2022-11-04T17:12:53.920Z,6.64
2022-11-04T17:15:22.522Z,6.40
2022-11-04T17:17:51.901Z,6.34
2022-11-04T17:20:20.418Z,6.21
2022-11-04T17:22:49.257Z,6.44
2022-11-04T17:25:21.160Z,6.38
2022-11-04T17:27:49.693Z,6.39
2022-11-04T17:30:18.921Z,6.24
2022-11-04T17:32:47.612Z,6.17
2022-11-04T17:35:17.999Z,6.16
2022-11-04T17:37:46.434Z,6.16
2022-11-04T17:40:17.034Z,6.04
2022-11-04T17:43:06.975Z,5.97
2022-11-04T17:45:40.349Z,5.88
2022-11-04T17:48:10.098Z,5.85
2022-11-04T17:50:42.184Z,5.77
2022-11-04T17:53:10.396Z,5.83
2022-11-04T17:55:40.671Z,5.87
2022-11-04T17:58:08.851Z,5.75
2022-11-04T18:00:36.802Z,5.78
2022-11-04T18:03:06.664Z,5.73
2022-11-04T18:05:34.810Z,5.74
2022-11-04T18:08:04.066Z,5.60
2022-11-04T18:10:32.089Z,5.65
2022-11-04T18:12:59.053Z,5.69
2022-11-04T18:15:26.900Z,5.79
2022-11-04T18:17:57.363Z,5.73
2022-11-04T18:20:25.279Z,5.82
2022-11-04T18:22:53.835Z,5.75
2022-11-04T18:25:23.182Z,5.56
2022-11-04T18:27:51.131Z,5.34
2022-11-04T18:30:19.109Z,5.15
2022-11-04T18:32:47.120Z,5.30
2022-11-04T18:35:14.965Z,5.24
2022-11-04T18:37:47.067Z,5.50
2022-11-04T18:40:16.005Z,5.36
2022-11-04T18:42:45.440Z,5.58
2022-11-04T18:45:19.351Z,5.67
2022-11-04T18:47:49.086Z,5.60
2022-11-04T18:50:17.436Z,5.38
2022-11-04T18:52:45.454Z,5.56
2022-11-04T18:55:15.277Z,5.45
2022-11-04T18:57:43.099Z,5.27
2022-11-04T19:00:17.002Z,5.32
2022-11-04T19:02:45.304Z,5.60
2022-11-04T19:05:13.234Z,5.68
2022-11-04T19:07:42.046Z,5.67
2022-11-04T19:10:10.758Z,5.60
2022-11-04T19:12:56.523Z,5.73
2022-11-04T19:15:25.820Z,5.80
2022-11-04T19:17:53.729Z,5.63
2022-11-04T19:20:22.100Z,5.97
2022-11-04T19:22:50.108Z,5.58
2022-11-04T19:25:18.753Z,5.53
2022-11-04T19:28:05.194Z,5.34
2022-11-04T19:30:37.597Z,5.37
2022-11-04T19:33:05.513Z,5.66
2022-11-04T19:35:34.369Z,5.38
2022-11-04T19:38:03.375Z,5.67
2022-11-04T19:40:31.680Z,5.84
2022-11-04T19:43:10.619Z,5.85
2022-11-04T19:45:45.512Z,6.10
2022-11-04T19:48:14.333Z,6.29
2022-11-04T19:50:43.414Z,6.36
2022-11-04T19:53:14.217Z,6.42
2022-11-04T19:55:48.643Z,6.59
2022-11-04T19:58:17.181Z,6.70
2022-11-04T20:00:47.434Z,6.83
2022-11-04T20:03:15.601Z,6.93
2022-11-04T20:05:45.029Z,6.97
2022-11-04T20:08:14.069Z,6.96
2022-11-04T20:10:43.582Z,6.96
2022-11-04T20:13:33.659Z,6.99
2022-11-04T20:16:03.941Z,7.02
2022-11-04T20:18:31.786Z,7.02
2022-11-04T20:20:59.706Z,6.98
2022-11-04T20:23:27.460Z,6.78
2022-11-04T20:25:55.381Z,6.70
2022-11-04T20:28:23.192Z,6.52
2022-11-04T20:30:51.114Z,6.31
2022-11-04T20:33:20.406Z,6.23
2022-11-04T20:35:48.188Z,6.07
2022-11-04T20:38:16.181Z,5.83
2022-11-04T20:40:44.031Z,6.17
2022-11-04T20:43:11.832Z,5.94
2022-11-04T20:45:40.150Z,5.79
2022-11-04T20:48:08.425Z,5.76
2022-11-04T20:50:38.440Z,5.84
2022-11-04T20:53:06.378Z,5.71
2022-11-04T20:55:34.661Z,5.54
2022-11-04T20:58:02.564Z,5.43
2022-11-04T21:00:31.232Z,5.22
2022-11-04T21:02:59.146Z,5.15
2022-11-04T21:05:26.993Z,5.08
2022-11-04T21:07:56.334Z,5.25
2022-11-04T21:10:24.377Z,5.20
2022-11-04T21:12:53.184Z,5.17
2022-11-04T21:15:34.933Z,5.17
2022-11-04T21:18:02.894Z,5.27
2022-11-04T21:20:30.750Z,4.93
2022-11-04T21:23:00.078Z,4.99
2022-11-04T21:25:29.941Z,4.81
2022-11-04T21:27:57.887Z,4.80
2022-11-04T21:30:30.400Z,4.84
2022-11-04T21:33:00.890Z,4.58
2022-11-04T21:35:29.086Z,4.53
2022-11-04T21:37:57.238Z,4.46
2022-11-04T21:40:26.527Z,4.44
2022-11-04T21:42:54.484Z,4.38
2022-11-04T21:45:22.365Z,4.40
2022-11-04T21:47:50.281Z,4.21
2022-11-04T21:50:18.714Z,4.12
2022-11-04T21:52:46.866Z,4.25
2022-11-04T21:55:14.976Z,4.39
2022-11-04T21:57:44.247Z,4.59
2022-11-04T22:00:15.208Z,4.71
2022-11-04T22:02:43.621Z,4.86
2022-11-04T22:05:12.527Z,4.52
2022-11-04T22:07:58.400Z,4.44
2022-11-04T22:10:27.652Z,4.29
2022-11-04T22:12:57.348Z,4.46
2022-11-04T22:15:42.416Z,4.55
2022-11-04T22:18:10.320Z,4.82
2022-11-04T22:20:38.620Z,4.77
2022-11-04T22:23:07.824Z,4.94
2022-11-04T22:25:36.131Z,5.08
2022-11-04T22:28:05.666Z,5.33
2022-11-04T22:30:33.426Z,5.13
2022-11-04T22:33:01.319Z,5.13
2022-11-04T22:35:29.382Z,5.15
2022-11-04T22:37:57.359Z,5.20
2022-11-04T22:40:26.089Z,5.32
2022-11-04T22:42:53.999Z,5.51
2022-11-04T22:45:23.343Z,5.71
2022-11-04T22:47:51.243Z,5.51
2022-11-04T22:50:19.423Z,5.58
2022-11-04T22:52:47.558Z,5.48
2022-11-04T22:55:15.685Z,5.33
2022-11-04T22:57:43.622Z,5.30
2022-11-04T23:00:12.875Z,5.32
2022-11-04T23:02:42.360Z,5.30
2022-11-04T23:05:10.484Z,5.17
2022-11-04T23:07:38.401Z,5.32
2022-11-04T23:10:24.601Z,5.27
2022-11-04T23:13:10.289Z,5.33
2022-11-04T23:16:03.137Z,5.26
2022-11-04T23:18:44.661Z,4.86
2022-11-04T23:21:32.416Z,5.16
2022-11-04T23:24:21.322Z,5.25
2022-11-04T23:26:49.439Z,5.36
2022-11-04T23:29:35.638Z,5.56
2022-11-04T23:32:03.998Z,5.51
2022-11-04T23:34:59.382Z,5.49
2022-11-04T23:37:34.462Z,5.77
2022-11-04T23:40:02.394Z,5.80
2022-11-04T23:42:30.317Z,5.97
2022-11-04T23:45:15.731Z,5.98
2022-11-04T23:48:03.154Z,6.03
2022-11-04T23:50:51.773Z,6.00
2022-11-04T23:53:39.271Z,5.99
2022-11-04T23:56:39.487Z,5.88
2022-11-04T23:59:27.600Z,5.77
